sensor_id;sensor_type;location;lat;lon;timestamp;pressure;altitude;pressure_sealevel;temperature;humidity
75063;BME280;63981;51.052;13.754;2023-06-26T00:01:27;100488.25;;;17.66;81.49
75063;BME280;63981;51.052;13.754;2023-06-26T00:04:00;100460.78;;;17.47;81.61
75063;BME280;63981;51.052;13.754;2023-06-26T00:06:27;100485.59;;;17.66;81.43
75063;BME280;63981;51.052;13.754;2023-06-26T00:08:54;100485.19;;;17.61;82.02
75063;BME280;63981;51.052;13.754;2023-06-26T00:11:21;100466.22;;;17.55;82.00
75063;BME280;63981;51.052;13.754;2023-06-26T00:13:47;100473.13;;;17.48;82.58
75063;BME280;63981;51.052;13.754;2023-06-26T00:16:13;100477.47;;;17.49;82.39
75063;BME280;63981;51.052;13.754;2023-06-26T00:18:39;100419.81;;;17.09;82.64
75063;BME280;63981;51.052;13.754;2023-06-26T00:21:05;100474.66;;;17.40;82.76
75063;BME280;63981;51.052;13.754;2023-06-26T00:23:30;100457.25;;;17.27;82.92
75063;BME280;63981;51.052;13.754;2023-06-26T00:25:57;100462.88;;;17.33;83.34
75063;BME280;63981;51.052;13.754;2023-06-26T00:28:23;100432.53;;;17.05;83.17
75063;BME280;63981;51.052;13.754;2023-06-26T00:30:49;100473.66;;;17.22;84.08
75063;BME280;63981;51.052;13.754;2023-06-26T00:33:15;100472.38;;;17.17;83.75
75063;BME280;63981;51.052;13.754;2023-06-26T00:35:41;100418.88;;;16.79;84.30
75063;BME280;63981;51.052;13.754;2023-06-26T00:38:06;100444.41;;;16.92;84.28
75063;BME280;63981;51.052;13.754;2023-06-26T00:40:32;100471.09;;;17.01;84.92
75063;BME280;63981;51.052;13.754;2023-06-26T00:42:58;100465.06;;;16.99;84.99
75063;BME280;63981;51.052;13.754;2023-06-26T00:45:24;100457.03;;;16.90;84.69
75063;BME280;63981;51.052;13.754;2023-06-26T00:47:51;100463.09;;;17.01;84.79
75063;BME280;63981;51.052;13.754;2023-06-26T00:50:18;100433.06;;;16.90;84.39
75063;BME280;63981;51.052;13.754;2023-06-26T00:52:44;100459.88;;;16.98;85.04
75063;BME280;63981;51.052;13.754;2023-06-26T00:55:10;100447.63;;;16.86;84.43
75063;BME280;63981;51.052;13.754;2023-06-26T00:57:36;100461.38;;;16.91;84.86
75063;BME280;63981;51.052;13.754;2023-06-26T01:00:03;100437.25;;;16.73;84.89
75063;BME280;63981;51.052;13.754;2023-06-26T01:02:30;100441.03;;;16.70;85.59
75063;BME280;63981;51.052;13.754;2023-06-26T01:05:02;100410.63;;;16.42;85.54
75063;BME280;63981;51.052;13.754;2023-06-26T01:07:35;100459.50;;;16.72;86.36
75063;BME280;63981;51.052;13.754;2023-06-26T01:10:20;100465.25;;;16.67;86.61
75063;BME280;63981;51.052;13.754;2023-06-26T01:12:48;100436.03;;;16.56;87.31
75063;BME280;63981;51.052;13.754;2023-06-26T01:15:14;100453.00;;;16.65;86.31
75063;BME280;63981;51.052;13.754;2023-06-26T01:17:40;100454.41;;;16.59;86.98
75063;BME280;63981;51.052;13.754;2023-06-26T01:20:11;100412.00;;;16.37;86.99
75063;BME280;63981;51.052;13.754;2023-06-26T01:22:56;100453.00;;;16.65;86.50
75063;BME280;63981;51.052;13.754;2023-06-26T01:25:37;100443.03;;;16.57;87.08
75063;BME280;63981;51.052;13.754;2023-06-26T01:28:08;100455.09;;;16.61;87.20
75063;BME280;63981;51.052;13.754;2023-06-26T01:30:38;100414.22;;;16.32;87.05
75063;BME280;63981;51.052;13.754;2023-06-26T01:33:05;100423.06;;;16.32;87.48
75063;BME280;63981;51.052;13.754;2023-06-26T01:35:31;100446.50;;;16.48;87.27
75063;BME280;63981;51.052;13.754;2023-06-26T01:38:14;100440.88;;;16.41;87.25
75063;BME280;63981;51.052;13.754;2023-06-26T01:40:41;100413.88;;;16.15;87.86
75063;BME280;63981;51.052;13.754;2023-06-26T01:43:14;100430.19;;;16.32;88.04
75063;BME280;63981;51.052;13.754;2023-06-26T01:45:42;100413.91;;;16.25;88.25
75063;BME280;63981;51.052;13.754;2023-06-26T01:48:09;100410.75;;;16.10;88.14
75063;BME280;63981;51.052;13.754;2023-06-26T01:50:41;100431.13;;;16.21;88.52
75063;BME280;63981;51.052;13.754;2023-06-26T01:53:12;100429.56;;;16.18;88.34
75063;BME280;63981;51.052;13.754;2023-06-26T01:55:53;100391.94;;;15.92;88.50
75063;BME280;63981;51.052;13.754;2023-06-26T01:58:24;100413.81;;;16.06;89.08
75063;BME280;63981;51.052;13.754;2023-06-26T02:00:50;100315.38;;;15.45;88.60
75063;BME280;63981;51.052;13.754;2023-06-26T02:03:16;100373.53;;;15.80;88.75
75063;BME280;63981;51.052;13.754;2023-06-26T02:05:42;100418.31;;;16.05;88.47
75063;BME280;63981;51.052;13.754;2023-06-26T02:08:09;100385.84;;;15.81;88.90
75063;BME280;63981;51.052;13.754;2023-06-26T02:10:34;100419.66;;;16.00;88.67
75063;BME280;63981;51.052;13.754;2023-06-26T02:13:00;100419.28;;;16.04;88.57
75063;BME280;63981;51.052;13.754;2023-06-26T02:15:26;100415.19;;;16.00;88.79
75063;BME280;63981;51.052;13.754;2023-06-26T02:17:53;100417.13;;;15.98;88.60
75063;BME280;63981;51.052;13.754;2023-06-26T02:20:19;100414.88;;;15.93;88.60
75063;BME280;63981;51.052;13.754;2023-06-26T02:22:45;100421.16;;;15.92;89.18
75063;BME280;63981;51.052;13.754;2023-06-26T02:25:11;100424.94;;;15.90;88.80
75063;BME280;63981;51.052;13.754;2023-06-26T02:27:38;100422.78;;;15.84;89.26
75063;BME280;63981;51.052;13.754;2023-06-26T02:30:04;100414.09;;;15.82;89.24
75063;BME280;63981;51.052;13.754;2023-06-26T02:32:30;100400.88;;;15.71;89.27
75063;BME280;63981;51.052;13.754;2023-06-26T02:34:56;100417.75;;;15.81;89.56
75063;BME280;63981;51.052;13.754;2023-06-26T02:37:22;100396.34;;;15.82;89.26
75063;BME280;63981;51.052;13.754;2023-06-26T02:39:48;100408.34;;;15.77;89.86
75063;BME280;63981;51.052;13.754;2023-06-26T02:42:14;100410.88;;;15.78;89.42
75063;BME280;63981;51.052;13.754;2023-06-26T02:44:40;100406.97;;;15.82;89.32
75063;BME280;63981;51.052;13.754;2023-06-26T02:47:06;100400.38;;;15.77;89.78
75063;BME280;63981;51.052;13.754;2023-06-26T02:49:33;100378.06;;;15.68;89.44
75063;BME280;63981;51.052;13.754;2023-06-26T02:51:59;100353.41;;;15.45;90.11
75063;BME280;63981;51.052;13.754;2023-06-26T02:54:28;100382.94;;;15.63;89.93
75063;BME280;63981;51.052;13.754;2023-06-26T02:56:59;100348.63;;;15.39;89.80
75063;BME280;63981;51.052;13.754;2023-06-26T02:59:28;100362.75;;;15.40;89.94
75063;BME280;63981;51.052;13.754;2023-06-26T03:01:55;100401.72;;;15.71;90.02
75063;BME280;63981;51.052;13.754;2023-06-26T03:04:27;100391.84;;;15.62;90.09
75063;BME280;63981;51.052;13.754;2023-06-26T03:06:53;100404.94;;;15.75;89.72
75063;BME280;63981;51.052;13.754;2023-06-26T03:09:19;100399.56;;;15.86;89.46
75063;BME280;63981;51.052;13.754;2023-06-26T03:11:45;100399.97;;;15.81;89.58
75063;BME280;63981;51.052;13.754;2023-06-26T03:14:11;100371.66;;;15.71;89.33
75063;BME280;63981;51.052;13.754;2023-06-26T03:16:37;100403.66;;;15.90;88.85
75063;BME280;63981;51.052;13.754;2023-06-26T03:19:03;100336.34;;;15.48;88.78
75063;BME280;63981;51.052;13.754;2023-06-26T03:21:32;100349.34;;;15.62;88.55
75063;BME280;63981;51.052;13.754;2023-06-26T03:23:59;100408.66;;;16.04;88.49
75063;BME280;63981;51.052;13.754;2023-06-26T03:26:25;100336.69;;;15.54;88.07
75063;BME280;63981;51.052;13.754;2023-06-26T03:28:54;100384.72;;;15.83;88.53
75063;BME280;63981;51.052;13.754;2023-06-26T03:31:20;100397.88;;;15.85;88.54
75063;BME280;63981;51.052;13.754;2023-06-26T03:33:46;100386.25;;;15.76;88.30
75063;BME280;63981;51.052;13.754;2023-06-26T03:36:12;100396.06;;;15.85;88.52
75063;BME280;63981;51.052;13.754;2023-06-26T03:38:38;100394.25;;;15.86;89.01
75063;BME280;63981;51.052;13.754;2023-06-26T03:41:04;100404.88;;;15.86;89.12
75063;BME280;63981;51.052;13.754;2023-06-26T03:43:30;100334.16;;;15.53;88.54
75063;BME280;63981;51.052;13.754;2023-06-26T03:46:16;100349.81;;;15.67;88.81
75063;BME280;63981;51.052;13.754;2023-06-26T03:48:42;100394.59;;;15.92;88.88
75063;BME280;63981;51.052;13.754;2023-06-26T03:51:08;100393.34;;;15.97;88.82
75063;BME280;63981;51.052;13.754;2023-06-26T03:53:34;100390.47;;;16.09;88.24
75063;BME280;63981;51.052;13.754;2023-06-26T03:56:00;100384.31;;;16.09;87.85
75063;BME280;63981;51.052;13.754;2023-06-26T03:58:26;100386.69;;;16.12;87.82
75063;BME280;63981;51.052;13.754;2023-06-26T04:00:52;100364.16;;;16.06;87.77
75063;BME280;63981;51.052;13.754;2023-06-26T04:03:18;100378.19;;;16.18;87.67
75063;BME280;63981;51.052;13.754;2023-06-26T04:05:46;100373.88;;;16.27;87.14
75063;BME280;63981;51.052;13.754;2023-06-26T04:08:12;100356.22;;;16.26;86.03
75063;BME280;63981;51.052;13.754;2023-06-26T04:10:39;100375.22;;;16.51;85.68
75063;BME280;63981;51.052;13.754;2023-06-26T04:13:05;100326.69;;;16.19;85.92
75063;BME280;63981;51.052;13.754;2023-06-26T04:15:31;100371.72;;;16.51;85.04
75063;BME280;63981;51.052;13.754;2023-06-26T04:17:57;100381.13;;;16.65;85.14
75063;BME280;63981;51.052;13.754;2023-06-26T04:20:23;100373.78;;;16.68;84.42
75063;BME280;63981;51.052;13.754;2023-06-26T04:22:49;100364.69;;;16.80;83.80
75063;BME280;63981;51.052;13.754;2023-06-26T04:25:15;100358.06;;;16.75;83.59
75063;BME280;63981;51.052;13.754;2023-06-26T04:27:41;100357.53;;;16.81;83.54
75063;BME280;63981;51.052;13.754;2023-06-26T04:30:07;100355.72;;;16.82;82.52
75063;BME280;63981;51.052;13.754;2023-06-26T04:32:33;100340.84;;;16.89;82.80
75063;BME280;63981;51.052;13.754;2023-06-26T04:34:59;100336.94;;;16.93;82.14
75063;BME280;63981;51.052;13.754;2023-06-26T04:37:43;100342.84;;;17.06;81.50
75063;BME280;63981;51.052;13.754;2023-06-26T04:40:09;100317.16;;;17.05;81.39
75063;BME280;63981;51.052;13.754;2023-06-26T04:42:36;100367.50;;;17.37;81.30
75063;BME280;63981;51.052;13.754;2023-06-26T04:45:02;100365.66;;;17.47;80.20
75063;BME280;63981;51.052;13.754;2023-06-26T04:47:28;100312.53;;;17.26;80.06
75063;BME280;63981;51.052;13.754;2023-06-26T04:49:54;100364.50;;;17.79;78.85
75063;BME280;63981;51.052;13.754;2023-06-26T04:52:20;100322.16;;;17.56;78.42
75063;BME280;63981;51.052;13.754;2023-06-26T04:54:46;100353.78;;;17.98;78.64
75063;BME280;63981;51.052;13.754;2023-06-26T04:57:11;100354.81;;;18.24;76.77
75063;BME280;63981;51.052;13.754;2023-06-26T04:59:37;100349.66;;;18.41;76.60
75063;BME280;63981;51.052;13.754;2023-06-26T05:02:03;100316.84;;;18.31;75.67
75063;BME280;63981;51.052;13.754;2023-06-26T05:04:30;100348.53;;;18.61;75.10
75063;BME280;63981;51.052;13.754;2023-06-26T05:06:56;100352.03;;;18.71;74.56
75063;BME280;63981;51.052;13.754;2023-06-26T05:09:22;100350.03;;;18.73;74.27
75063;BME280;63981;51.052;13.754;2023-06-26T05:11:48;100347.00;;;18.86;73.59
75063;BME280;63981;51.052;13.754;2023-06-26T05:14:14;100321.13;;;18.86;73.49
75063;BME280;63981;51.052;13.754;2023-06-26T05:16:40;100349.63;;;18.96;72.70
75063;BME280;63981;51.052;13.754;2023-06-26T05:19:05;100340.09;;;18.93;72.81
75063;BME280;63981;51.052;13.754;2023-06-26T05:21:31;100339.69;;;19.06;72.25
75063;BME280;63981;51.052;13.754;2023-06-26T05:23:57;100336.25;;;19.13;72.16
75063;BME280;63981;51.052;13.754;2023-06-26T05:26:24;100333.94;;;19.36;71.39
75063;BME280;63981;51.052;13.754;2023-06-26T05:28:50;100323.03;;;19.12;71.97
75063;BME280;63981;51.052;13.754;2023-06-26T05:31:16;100334.75;;;19.37;71.41
75063;BME280;63981;51.052;13.754;2023-06-26T05:33:43;100335.69;;;19.45;70.78
75063;BME280;63981;51.052;13.754;2023-06-26T05:36:12;100323.88;;;19.30;71.11
75063;BME280;63981;51.052;13.754;2023-06-26T05:38:38;100328.69;;;19.53;70.46
75063;BME280;63981;51.052;13.754;2023-06-26T05:41:04;100322.97;;;19.65;70.07
75063;BME280;63981;51.052;13.754;2023-06-26T05:43:30;100308.72;;;19.83;69.85
75063;BME280;63981;51.052;13.754;2023-06-26T05:45:57;100304.19;;;19.83;69.54
75063;BME280;63981;51.052;13.754;2023-06-26T05:48:25;100317.03;;;20.14;69.10
75063;BME280;63981;51.052;13.754;2023-06-26T05:50:51;100245.22;;;20.01;68.56
75063;BME280;63981;51.052;13.754;2023-06-26T05:53:17;100308.00;;;20.49;68.07
75063;BME280;63981;51.052;13.754;2023-06-26T05:55:43;100309.38;;;20.69;67.15
75063;BME280;63981;51.052;13.754;2023-06-26T05:58:12;100288.94;;;20.68;66.76
75063;BME280;63981;51.052;13.754;2023-06-26T06:00:39;100300.69;;;20.91;65.96
75063;BME280;63981;51.052;13.754;2023-06-26T06:03:06;100276.75;;;20.82;65.40
75063;BME280;63981;51.052;13.754;2023-06-26T06:05:32;100299.69;;;21.17;65.26
75063;BME280;63981;51.052;13.754;2023-06-26T06:07:57;100270.03;;;21.18;64.50
75063;BME280;63981;51.052;13.754;2023-06-26T06:10:23;100294.03;;;21.36;64.24
75063;BME280;63981;51.052;13.754;2023-06-26T06:12:49;100285.31;;;21.10;65.63
75063;BME280;63981;51.052;13.754;2023-06-26T06:15:15;100288.50;;;21.13;64.83
75063;BME280;63981;51.052;13.754;2023-06-26T06:17:40;100261.19;;;21.02;65.90
75063;BME280;63981;51.052;13.754;2023-06-26T06:20:06;100292.50;;;21.34;64.15
75063;BME280;63981;51.052;13.754;2023-06-26T06:22:32;100290.63;;;21.59;63.78
75063;BME280;63981;51.052;13.754;2023-06-26T06:24:58;100284.69;;;21.88;63.01
75063;BME280;63981;51.052;13.754;2023-06-26T06:27:24;100292.72;;;21.96;63.13
75063;BME280;63981;51.052;13.754;2023-06-26T06:29:49;100242.41;;;21.90;62.47
75063;BME280;63981;51.052;13.754;2023-06-26T06:32:15;100231.31;;;21.93;62.12
75063;BME280;63981;51.052;13.754;2023-06-26T06:34:41;100280.66;;;21.84;62.77
75063;BME280;63981;51.052;13.754;2023-06-26T06:37:07;100265.56;;;21.91;62.83
75063;BME280;63981;51.052;13.754;2023-06-26T06:39:32;100276.00;;;22.25;62.22
75063;BME280;63981;51.052;13.754;2023-06-26T06:41:58;100275.56;;;22.05;62.35
75063;BME280;63981;51.052;13.754;2023-06-26T06:44:24;100273.28;;;22.33;61.49
75063;BME280;63981;51.052;13.754;2023-06-26T06:46:50;100215.03;;;22.33;60.51
75063;BME280;63981;51.052;13.754;2023-06-26T06:49:15;100268.09;;;22.77;60.55
75063;BME280;63981;51.052;13.754;2023-06-26T06:51:41;100235.16;;;22.60;60.23
75063;BME280;63981;51.052;13.754;2023-06-26T06:54:07;100269.94;;;23.08;60.07
75063;BME280;63981;51.052;13.754;2023-06-26T06:56:33;100257.59;;;23.13;59.81
75063;BME280;63981;51.052;13.754;2023-06-26T06:58:59;100246.53;;;23.31;59.08
75063;BME280;63981;51.052;13.754;2023-06-26T07:01:24;100260.75;;;23.69;58.18
75063;BME280;63981;51.052;13.754;2023-06-26T07:03:50;100261.50;;;23.78;58.17
75063;BME280;63981;51.052;13.754;2023-06-26T07:06:16;100262.31;;;24.23;56.71
75063;BME280;63981;51.052;13.754;2023-06-26T07:08:42;100254.66;;;24.26;56.28
75063;BME280;63981;51.052;13.754;2023-06-26T07:11:08;100251.47;;;24.52;55.84
75063;BME280;63981;51.052;13.754;2023-06-26T07:13:33;100256.91;;;24.23;55.47
75063;BME280;63981;51.052;13.754;2023-06-26T07:15:59;100204.22;;;24.20;54.81
75063;BME280;63981;51.052;13.754;2023-06-26T07:18:25;100257.56;;;24.61;54.25
75063;BME280;63981;51.052;13.754;2023-06-26T07:20:51;100250.50;;;24.38;54.33
75063;BME280;63981;51.052;13.754;2023-06-26T07:23:16;100252.78;;;24.41;54.91
75063;BME280;63981;51.052;13.754;2023-06-26T07:25:42;100254.47;;;24.42;55.00
75063;BME280;63981;51.052;13.754;2023-06-26T07:28:12;100246.22;;;25.08;54.45
75063;BME280;63981;51.052;13.754;2023-06-26T07:30:38;100256.72;;;24.60;55.05
75063;BME280;63981;51.052;13.754;2023-06-26T07:33:04;100240.34;;;24.83;54.12
75063;BME280;63981;51.052;13.754;2023-06-26T07:35:29;100247.72;;;24.96;53.22
75063;BME280;63981;51.052;13.754;2023-06-26T07:37:55;100130.75;;;25.32;52.03
75063;BME280;63981;51.052;13.754;2023-06-26T07:40:21;100236.13;;;25.79;50.99
75063;BME280;63981;51.052;13.754;2023-06-26T07:42:47;100232.16;;;26.23;51.04
75063;BME280;63981;51.052;13.754;2023-06-26T07:45:13;100235.56;;;26.52;49.81
75063;BME280;63981;51.052;13.754;2023-06-26T07:47:39;100232.03;;;26.44;49.03
75063;BME280;63981;51.052;13.754;2023-06-26T07:50:05;100203.53;;;25.87;50.42
75063;BME280;63981;51.052;13.754;2023-06-26T07:52:31;100223.94;;;26.51;50.02
75063;BME280;63981;51.052;13.754;2023-06-26T07:54:57;100227.47;;;26.65;48.34
75063;BME280;63981;51.052;13.754;2023-06-26T07:57:23;100227.91;;;26.95;48.63
75063;BME280;63981;51.052;13.754;2023-06-26T07:59:50;100220.16;;;28.23;45.78
75063;BME280;63981;51.052;13.754;2023-06-26T08:02:16;100203.88;;;28.29;46.10
75063;BME280;63981;51.052;13.754;2023-06-26T08:04:43;100183.47;;;28.20;44.27
75063;BME280;63981;51.052;13.754;2023-06-26T08:07:10;100183.78;;;29.61;43.89
75063;BME280;63981;51.052;13.754;2023-06-26T08:09:35;100170.25;;;28.68;41.52
75063;BME280;63981;51.052;13.754;2023-06-26T08:12:01;100218.13;;;28.56;43.14
75063;BME280;63981;51.052;13.754;2023-06-26T08:14:27;100200.88;;;30.17;41.62
75063;BME280;63981;51.052;13.754;2023-06-26T08:16:53;100199.63;;;31.26;39.18
75063;BME280;63981;51.052;13.754;2023-06-26T08:19:19;100203.69;;;30.82;37.41
75063;BME280;63981;51.052;13.754;2023-06-26T08:21:46;100195.75;;;32.14;36.38
75063;BME280;63981;51.052;13.754;2023-06-26T08:24:12;100190.53;;;32.87;34.16
75063;BME280;63981;51.052;13.754;2023-06-26T08:26:45;100197.47;;;33.11;33.74
75063;BME280;63981;51.052;13.754;2023-06-26T08:29:11;100186.44;;;31.98;34.91
75063;BME280;63981;51.052;13.754;2023-06-26T08:31:37;100157.38;;;33.55;33.00
75063;BME280;63981;51.052;13.754;2023-06-26T08:34:04;100188.97;;;34.98;32.57
75063;BME280;63981;51.052;13.754;2023-06-26T08:36:31;100182.53;;;35.66;30.55
75063;BME280;63981;51.052;13.754;2023-06-26T08:38:57;100164.28;;;35.92;29.07
75063;BME280;63981;51.052;13.754;2023-06-26T08:41:23;100171.59;;;34.82;29.62
75063;BME280;63981;51.052;13.754;2023-06-26T08:43:50;100154.72;;;36.10;28.75
75063;BME280;63981;51.052;13.754;2023-06-26T08:46:18;100134.63;;;37.37;27.71
75063;BME280;63981;51.052;13.754;2023-06-26T08:49:01;100161.66;;;37.04;26.72
75063;BME280;63981;51.052;13.754;2023-06-26T08:51:28;100157.97;;;38.09;26.53
75063;BME280;63981;51.052;13.754;2023-06-26T08:54:00;100163.84;;;36.77;26.48
75063;BME280;63981;51.052;13.754;2023-06-26T08:56:46;100163.22;;;34.94;26.79
75063;BME280;63981;51.052;13.754;2023-06-26T08:59:15;100161.47;;;35.77;26.92
75063;BME280;63981;51.052;13.754;2023-06-26T09:01:41;100159.56;;;37.61;25.76
75063;BME280;63981;51.052;13.754;2023-06-26T09:04:07;100158.56;;;37.26;24.48
75063;BME280;63981;51.052;13.754;2023-06-26T09:06:33;100135.59;;;38.21;23.52
75063;BME280;63981;51.052;13.754;2023-06-26T09:08:59;100145.50;;;39.86;21.77
75063;BME280;63981;51.052;13.754;2023-06-26T09:11:25;100108.81;;;40.04;21.29
75063;BME280;63981;51.052;13.754;2023-06-26T09:13:51;100145.06;;;38.04;24.11
75063;BME280;63981;51.052;13.754;2023-06-26T09:16:17;100118.19;;;39.17;23.53
75063;BME280;63981;51.052;13.754;2023-06-26T09:18:45;100138.97;;;40.00;22.58
75063;BME280;63981;51.052;13.754;2023-06-26T09:21:11;100140.66;;;41.81;21.70
75063;BME280;63981;51.052;13.754;2023-06-26T09:23:39;100148.13;;;41.12;22.01
75063;BME280;63981;51.052;13.754;2023-06-26T09:26:07;100117.19;;;40.96;21.65
75063;BME280;63981;51.052;13.754;2023-06-26T09:28:33;100102.66;;;40.91;22.13
75063;BME280;63981;51.052;13.754;2023-06-26T09:31:07;100137.22;;;42.88;20.61
75063;BME280;63981;51.052;13.754;2023-06-26T09:33:34;100134.81;;;39.36;21.64
75063;BME280;63981;51.052;13.754;2023-06-26T09:36:05;100137.97;;;40.29;22.52
75063;BME280;63981;51.052;13.754;2023-06-26T09:38:31;100125.19;;;43.89;19.75
75063;BME280;63981;51.052;13.754;2023-06-26T09:40:56;100086.31;;;42.53;20.31
75063;BME280;63981;51.052;13.754;2023-06-26T09:43:23;100118.16;;;44.18;18.63
75063;BME280;63981;51.052;13.754;2023-06-26T09:45:49;100082.59;;;44.49;19.27
75063;BME280;63981;51.052;13.754;2023-06-26T09:48:16;100101.41;;;43.48;18.80
75063;BME280;63981;51.052;13.754;2023-06-26T09:50:43;100101.75;;;43.07;18.88
75063;BME280;63981;51.052;13.754;2023-06-26T09:53:12;100113.16;;;45.13;17.67
75063;BME280;63981;51.052;13.754;2023-06-26T09:55:40;100105.94;;;44.74;17.22
75063;BME280;63981;51.052;13.754;2023-06-26T09:58:11;100092.28;;;46.20;15.64
75063;BME280;63981;51.052;13.754;2023-06-26T10:00:42;100105.69;;;44.41;16.44
75063;BME280;63981;51.052;13.754;2023-06-26T10:03:11;100076.66;;;46.07;16.95
75063;BME280;63981;51.052;13.754;2023-06-26T10:05:39;100104.88;;;44.32;16.78
75063;BME280;63981;51.052;13.754;2023-06-26T10:08:06;100095.84;;;47.11;15.46
75063;BME280;63981;51.052;13.754;2023-06-26T10:10:35;100085.91;;;43.56;17.84
75063;BME280;63981;51.052;13.754;2023-06-26T10:13:15;100095.75;;;44.14;16.08
75063;BME280;63981;51.052;13.754;2023-06-26T10:15:44;100101.00;;;41.72;19.57
75063;BME280;63981;51.052;13.754;2023-06-26T10:18:12;100087.16;;;45.39;17.37
75063;BME280;63981;51.052;13.754;2023-06-26T10:20:40;100050.84;;;45.98;15.89
75063;BME280;63981;51.052;13.754;2023-06-26T10:23:08;100088.88;;;47.42;14.58
75063;BME280;63981;51.052;13.754;2023-06-26T10:25:37;100081.25;;;47.67;13.24
75063;BME280;63981;51.052;13.754;2023-06-26T10:28:03;100061.41;;;48.87;12.46
75063;BME280;63981;51.052;13.754;2023-06-26T10:30:33;100080.63;;;49.55;12.74
75063;BME280;63981;51.052;13.754;2023-06-26T10:33:01;100075.66;;;50.26;12.39
75063;BME280;63981;51.052;13.754;2023-06-26T10:35:27;100057.19;;;51.17;11.57
75063;BME280;63981;51.052;13.754;2023-06-26T10:38:00;100062.66;;;49.06;12.54
75063;BME280;63981;51.052;13.754;2023-06-26T10:40:28;100053.44;;;49.75;12.56
75063;BME280;63981;51.052;13.754;2023-06-26T10:43:07;100061.38;;;50.77;11.53
75063;BME280;63981;51.052;13.754;2023-06-26T10:45:34;100058.09;;;53.07;10.19
75063;BME280;63981;51.052;13.754;2023-06-26T10:48:01;100059.25;;;51.20;10.96
75063;BME280;63981;51.052;13.754;2023-06-26T10:50:29;100017.81;;;50.87;11.12
75063;BME280;63981;51.052;13.754;2023-06-26T10:58:41;100052.97;;;54.21;9.95
75063;BME280;63981;51.052;13.754;2023-06-26T11:04:03;100049.31;;;53.19;9.37
75063;BME280;63981;51.052;13.754;2023-06-26T11:06:29;100046.06;;;55.32;9.34
75063;BME280;63981;51.052;13.754;2023-06-26T11:14:18;100037.09;;;53.66;9.34
75063;BME280;63981;51.052;13.754;2023-06-26T11:16:44;100039.63;;;54.17;8.42
75063;BME280;63981;51.052;13.754;2023-06-26T11:19:10;99970.28;;;51.31;10.23
75063;BME280;63981;51.052;13.754;2023-06-26T11:21:39;100034.66;;;52.99;10.21
75063;BME280;63981;51.052;13.754;2023-06-26T11:24:08;100027.84;;;51.41;10.96
75063;BME280;63981;51.052;13.754;2023-06-26T11:26:42;100025.25;;;49.14;12.59
75063;BME280;63981;51.052;13.754;2023-06-26T11:29:09;100022.59;;;52.98;11.08
75063;BME280;63981;51.052;13.754;2023-06-26T11:31:37;100025.34;;;50.56;11.05
75063;BME280;63981;51.052;13.754;2023-06-26T11:36:34;100016.28;;;54.63;9.43
75063;BME280;63981;51.052;13.754;2023-06-26T11:39:04;100004.91;;;56.97;8.69
75063;BME280;63981;51.052;13.754;2023-06-26T11:41:33;100006.16;;;57.30;7.44
75063;BME280;63981;51.052;13.754;2023-06-26T11:44:05;100021.06;;;49.23;12.28
75063;BME280;63981;51.052;13.754;2023-06-26T11:46:33;100010.69;;;47.70;14.29
75063;BME280;63981;51.052;13.754;2023-06-26T11:48:59;100009.94;;;53.33;11.35
75063;BME280;63981;51.052;13.754;2023-06-26T11:51:28;100003.00;;;49.98;12.02
75063;BME280;63981;51.052;13.754;2023-06-26T11:53:54;99992.19;;;56.30;8.49
75063;BME280;63981;51.052;13.754;2023-06-26T11:56:20;100002.31;;;57.44;7.36
75063;BME280;63981;51.052;13.754;2023-06-26T11:59:04;100008.41;;;57.73;7.71
75063;BME280;63981;51.052;13.754;2023-06-26T12:01:41;99997.53;;;53.45;9.16
75063;BME280;63981;51.052;13.754;2023-06-26T12:04:09;99976.97;;;56.96;6.93
75063;BME280;63981;51.052;13.754;2023-06-26T12:06:38;99993.16;;;55.36;7.83
75063;BME280;63981;51.052;13.754;2023-06-26T12:09:08;99980.94;;;55.50;7.84
75063;BME280;63981;51.052;13.754;2023-06-26T12:11:36;99980.00;;;54.51;9.14
75063;BME280;63981;51.052;13.754;2023-06-26T12:14:05;99988.63;;;50.68;11.04
75063;BME280;63981;51.052;13.754;2023-06-26T12:16:34;99981.53;;;50.74;10.56
75063;BME280;63981;51.052;13.754;2023-06-26T12:19:01;99964.25;;;54.11;9.55
75063;BME280;63981;51.052;13.754;2023-06-26T12:21:43;99986.91;;;49.72;11.77
75063;BME280;63981;51.052;13.754;2023-06-26T12:24:17;99970.66;;;53.90;9.68
75063;BME280;63981;51.052;13.754;2023-06-26T12:26:45;99984.09;;;50.87;10.69
75063;BME280;63981;51.052;13.754;2023-06-26T12:29:13;99986.09;;;43.60;16.38
75063;BME280;63981;51.052;13.754;2023-06-26T12:31:48;99948.00;;;46.29;14.37
75063;BME280;63981;51.052;13.754;2023-06-26T12:34:17;99965.53;;;53.09;9.33
75063;BME280;63981;51.052;13.754;2023-06-26T12:36:50;99922.25;;;50.30;11.02
75063;BME280;63981;51.052;13.754;2023-06-26T12:39:18;99956.66;;;56.18;7.47
75063;BME280;63981;51.052;13.754;2023-06-26T12:41:48;99957.66;;;55.90;9.15
75063;BME280;63981;51.052;13.754;2023-06-26T12:46:50;99879.03;;;51.55;10.65
75063;BME280;63981;51.052;13.754;2023-06-26T12:49:18;99899.81;;;55.40;9.23
75063;BME280;63981;51.052;13.754;2023-06-26T12:51:45;99945.69;;;51.54;11.85
75063;BME280;63981;51.052;13.754;2023-06-26T12:54:11;99938.56;;;52.45;11.93
75063;BME280;63981;51.052;13.754;2023-06-26T12:56:37;99940.50;;;53.00;11.13
75063;BME280;63981;51.052;13.754;2023-06-26T12:59:03;99934.22;;;56.42;9.15
75063;BME280;63981;51.052;13.754;2023-06-26T13:01:29;99933.44;;;55.86;8.88